Time;durP1;ratioP1;P1;durP2;ratioP2;P2;SDS_P1;SDS_P2;PMS_P1;PMS_P2;Temp;Humidity;BMP_temperature;BMP_pressure;BME280_temperature;BME280_humidity;BME280_pressure;Samples;Min_cycle;Max_cycle;Signal;HPM_P1;HPM_P2
2021/12/23 00:01:48;;;;;;;;;;;1.20;95.20;;;;;;5032000;28;19921;-73
2021/12/23 00:04:13;;;;;;;;;;;1.20;95.30;;;;;;5031939;28;19913;-73
2021/12/23 00:06:39;;;;;;;;;;;1.20;95.30;;;;;;5031706;28;20573;-73
2021/12/23 00:09:05;;;;;;;;;;;1.20;95.40;;;;;;5032528;28;19913;-73
2021/12/23 00:11:31;;;;;;;;;;;1.20;95.40;;;;;;5031735;28;19914;-73
2021/12/23 00:14:05;;;;;;;;;;;1.20;95.30;;;;;;5031836;28;20000;-72
2021/12/23 00:16:55;;;;;;;;;;;1.20;95.20;;;;;;5031973;28;20059;-72
2021/12/23 00:24:34;;;;;;;;;;;1.10;95.20;;;;;;5032077;28;19975;-73
2021/12/23 00:27:00;;;;;;;;;;;1.10;95.30;;;;;;5032536;28;19988;-73
2021/12/23 00:29:25;;;;;;;;;;;1.20;95.20;;;;;;5031874;28;20020;-73
2021/12/23 00:31:51;;;;;;;;;;;1.20;95.20;;;;;;5031920;28;20015;-72
2021/12/23 00:34:16;;;;;;;;;;;1.20;95.10;;;;;;5031627;28;19917;-73
2021/12/23 00:36:44;;;;;;;;;;;1.10;95.10;;;;;;5030763;28;19920;-72
2021/12/23 00:39:11;;;;;;;;;;;1.20;95.20;;;;;;5032350;28;19909;-73
2021/12/23 00:41:37;;;;;;;;;;;1.20;95.10;;;;;;5031587;28;19913;-72
2021/12/23 00:44:02;;;;;;;;;;;1.20;95.10;;;;;;5031581;28;20246;-72
2021/12/23 00:46:28;;;;;;;;;;;1.20;95.00;;;;;;5031500;28;19913;-72
2021/12/23 00:48:53;;;;;;;;;;;1.20;95.00;;;;;;5031565;28;19928;-72
2021/12/23 00:51:19;;;;;;;;;;;1.20;95.00;;;;;;5032045;28;19913;-73
2021/12/23 00:53:48;;;;;;;;;;;1.20;95.00;;;;;;5031866;28;20235;-73
2021/12/23 00:56:14;;;;;;;;;;;1.30;95.10;;;;;;5031336;28;19924;-73
2021/12/23 00:58:40;;;;;;;;;;;1.20;94.90;;;;;;5031504;28;19913;-72
2021/12/23 01:01:06;;;;;;;;;;;1.20;94.90;;;;;;5031619;28;19917;-73
2021/12/23 01:03:31;;;;;;;;;;;1.20;94.90;;;;;;5032400;28;19913;-73
2021/12/23 01:05:57;;;;;;;;;;;1.20;94.90;;;;;;5035460;28;19980;-72
2021/12/23 01:08:23;;;;;;;;;;;1.20;94.80;;;;;;5033837;28;19961;-72
2021/12/23 01:10:50;;;;;;;;;;;1.20;94.80;;;;;;5034896;28;19936;-72
2021/12/23 01:13:18;;;;;;;;;;;1.20;94.80;;;;;;5034761;28;19948;-73
2021/12/23 01:18:25;;;;;;;;;;;1.20;94.80;;;;;;5034851;28;20305;-73
2021/12/23 01:20:52;;;;;;;;;;;1.30;94.80;;;;;;5035079;28;19944;-72
2021/12/23 01:23:19;;;;;;;;;;;1.20;94.70;;;;;;5033486;28;19914;-74
2021/12/23 01:25:44;;;;;;;;;;;1.30;94.70;;;;;;5034465;28;19924;-74
2021/12/23 01:28:10;;;;;;;;;;;1.30;94.70;;;;;;5033288;28;20275;-72
2021/12/23 01:30:37;;;;;;;;;;;1.30;94.70;;;;;;5034347;28;19936;-73
2021/12/23 01:33:03;;;;;;;;;;;1.40;94.70;;;;;;5034849;28;19923;-72
2021/12/23 01:35:29;;;;;;;;;;;1.40;94.60;;;;;;5033247;28;20114;-72
2021/12/23 01:37:54;;;;;;;;;;;1.40;94.50;;;;;;5034429;28;20003;-74
2021/12/23 01:40:21;;;;;;;;;;;1.40;94.50;;;;;;5034142;28;19924;-72
2021/12/23 01:42:46;;;;;;;;;;;1.40;94.50;;;;;;5034351;28;19913;-73
2021/12/23 01:45:14;;;;;;;;;;;1.40;94.50;;;;;;5034114;28;19909;-72
2021/12/23 01:47:40;;;;;;;;;;;1.40;94.40;;;;;;5034696;28;20350;-72
2021/12/23 01:50:06;;;;;;;;;;;1.40;94.50;;;;;;5034374;28;19928;-72
2021/12/23 01:52:32;;;;;;;;;;;1.40;94.50;;;;;;5033328;28;19970;-74
2021/12/23 01:54:57;;;;;;;;;;;1.50;94.50;;;;;;5033004;28;19917;-73
2021/12/23 01:57:23;;;;;;;;;;;1.50;94.40;;;;;;5034245;28;19909;-73
2021/12/23 01:59:49;;;;;;;;;;;1.50;94.40;;;;;;5034635;28;19913;-72
2021/12/23 02:02:15;;;;;;;;;;;1.40;94.40;;;;;;5033065;28;19920;-73
2021/12/23 02:04:41;;;;;;;;;;;1.50;94.40;;;;;;5034216;28;19913;-74
2021/12/23 02:07:06;;;;;;;;;;;1.50;94.40;;;;;;5033985;28;20262;-73
2021/12/23 02:09:32;;;;;;;;;;;1.40;94.30;;;;;;5033899;28;19920;-72
2021/12/23 02:11:57;;;;;;;;;;;1.50;94.40;;;;;;5034259;28;19909;-73
2021/12/23 02:14:23;;;;;;;;;;;1.40;94.60;;;;;;5033215;28;19947;-72
2021/12/23 02:16:48;;;;;;;;;;;1.50;94.40;;;;;;5033215;28;19913;-72
2021/12/23 02:19:18;;;;;;;;;;;1.50;94.30;;;;;;5033566;28;19917;-73
2021/12/23 02:21:44;;;;;;;;;;;1.50;94.30;;;;;;5032695;28;20257;-73
2021/12/23 02:24:09;;;;;;;;;;;1.40;94.20;;;;;;5034209;28;19924;-73
2021/12/23 02:26:38;;;;;;;;;;;1.50;94.20;;;;;;5033443;28;19917;-73
2021/12/23 02:29:06;;;;;;;;;;;1.60;94.30;;;;;;5032669;28;19941;-72
2021/12/23 02:31:32;;;;;;;;;;;1.60;94.20;;;;;;5032350;28;19936;-72
2021/12/23 02:33:58;;;;;;;;;;;1.60;94.20;;;;;;5033526;28;19917;-72
2021/12/23 02:36:23;;;;;;;;;;;1.60;94.10;;;;;;5020656;28;19910;-72
2021/12/23 02:38:49;;;;;;;;;;;1.60;94.10;;;;;;5012754;28;20386;-72
2021/12/23 02:41:14;;;;;;;;;;;1.60;94.10;;;;;;5013579;28;20223;-73
2021/12/23 02:43:40;;;;;;;;;;;1.60;94.10;;;;;;5013578;28;20060;-72
2021/12/23 02:46:05;;;;;;;;;;;1.60;94.10;;;;;;5013538;28;19918;-72
2021/12/23 02:48:34;;;;;;;;;;;1.60;94.00;;;;;;5013429;28;19949;-72
2021/12/23 02:51:01;;;;;;;;;;;1.60;94.10;;;;;;5012846;28;19917;-74
2021/12/23 02:53:27;;;;;;;;;;;1.60;94.00;;;;;;5013373;28;20346;-73
2021/12/23 02:55:56;;;;;;;;;;;1.60;94.00;;;;;;5013286;28;20020;-74
2021/12/23 02:58:22;;;;;;;;;;;1.70;94.00;;;;;;5013093;28;20271;-72
2021/12/23 03:00:51;;;;;;;;;;;1.60;94.00;;;;;;5013199;28;20409;-73
2021/12/23 03:03:17;;;;;;;;;;;1.60;94.00;;;;;;5013008;28;19971;-72
2021/12/23 03:06:09;;;;;;;;;;;1.60;93.90;;;;;;5012348;28;19909;-74
2021/12/23 03:11:40;;;;;;;;;;;1.60;94.00;;;;;;5022155;28;20258;-72
2021/12/23 03:14:06;;;;;;;;;;;1.60;94.00;;;;;;5032314;28;19921;-73
2021/12/23 03:16:34;;;;;;;;;;;1.60;94.00;;;;;;5032385;28;19927;-73
2021/12/23 03:19:00;;;;;;;;;;;1.60;94.10;;;;;;5032364;28;20379;-70
2021/12/23 03:21:25;;;;;;;;;;;1.60;94.00;;;;;;5031338;28;20224;-72
2021/12/23 03:23:51;;;;;;;;;;;1.60;94.10;;;;;;5031669;28;19909;-73
2021/12/23 03:26:17;;;;;;;;;;;1.60;94.00;;;;;;5032166;28;20319;-72
2021/12/23 03:28:42;;;;;;;;;;;1.60;94.10;;;;;;5031846;28;19914;-72
2021/12/23 03:31:08;;;;;;;;;;;1.80;94.10;;;;;;5031047;28;19929;-71
2021/12/23 03:33:33;;;;;;;;;;;1.60;94.00;;;;;;5032257;28;20396;-74
2021/12/23 03:35:59;;;;;;;;;;;1.60;93.90;;;;;;5032694;28;20255;-72
2021/12/23 03:38:25;;;;;;;;;;;1.60;93.90;;;;;;5032139;28;20255;-72
2021/12/23 03:40:50;;;;;;;;;;;1.70;93.90;;;;;;5032362;28;20347;-73
2021/12/23 03:43:16;;;;;;;;;;;1.70;93.80;;;;;;5030938;28;19992;-73
2021/12/23 03:45:43;;;;;;;;;;;1.70;93.90;;;;;;5032141;28;19913;-73
2021/12/23 03:48:12;;;;;;;;;;;1.70;94.00;;;;;;5031693;28;19965;-73
2021/12/23 03:50:38;;;;;;;;;;;1.70;93.80;;;;;;5031125;28;19913;-72
2021/12/23 03:53:03;;;;;;;;;;;1.70;93.90;;;;;;5031834;28;19986;-73
2021/12/23 03:55:29;;;;;;;;;;;1.70;93.90;;;;;;5031846;28;19918;-73
2021/12/23 03:57:54;;;;;;;;;;;1.70;93.90;;;;;;5031818;28;20308;-73
2021/12/23 04:00:22;;;;;;;;;;;1.90;93.90;;;;;;5031003;28;19910;-73
2021/12/23 04:02:47;;;;;;;;;;;1.80;93.80;;;;;;5032423;28;19913;-73
2021/12/23 04:05:13;;;;;;;;;;;1.80;93.80;;;;;;5031737;28;20043;-73
2021/12/23 04:07:39;;;;;;;;;;;1.80;93.80;;;;;;5031884;28;19932;-74
2021/12/23 04:10:16;;;;;;;;;;;1.90;93.80;;;;;;5031690;28;19928;-72
2021/12/23 04:12:41;;;;;;;;;;;1.90;93.80;;;;;;5031613;28;19924;-73
2021/12/23 04:15:07;;;;;;;;;;;1.80;93.70;;;;;;5031925;28;19932;-73
2021/12/23 04:17:33;;;;;;;;;;;1.80;93.80;;;;;;5031560;28;19968;-72
2021/12/23 04:20:16;;;;;;;;;;;2.00;93.80;;;;;;5031822;28;19913;-73
2021/12/23 04:22:42;;;;;;;;;;;1.80;93.60;;;;;;5031671;28;20044;-73
2021/12/23 04:25:07;;;;;;;;;;;1.90;93.60;;;;;;5031747;28;20262;-73
2021/12/23 04:27:33;;;;;;;;;;;1.90;93.70;;;;;;5031688;28;19913;-74
2021/12/23 04:29:58;;;;;;;;;;;1.90;93.60;;;;;;5032062;28;19948;-73
2021/12/23 04:32:24;;;;;;;;;;;1.90;93.60;;;;;;5031361;28;20364;-75
2021/12/23 04:34:49;;;;;;;;;;;2.00;93.80;;;;;;5031588;28;20016;-73
2021/12/23 04:37:16;;;;;;;;;;;1.90;93.50;;;;;;5031626;28;20138;-73
2021/12/23 04:39:41;;;;;;;;;;;1.90;93.50;;;;;;5034619;28;19924;-74
2021/12/23 04:42:07;;;;;;;;;;;1.80;93.60;;;;;;5035811;28;19913;-73
2021/12/23 04:44:33;;;;;;;;;;;1.80;93.70;;;;;;5034074;28;19913;-73
2021/12/23 04:46:58;;;;;;;;;;;1.90;93.70;;;;;;5034042;28;19913;-73
2021/12/23 04:49:24;;;;;;;;;;;1.90;93.70;;;;;;5035154;28;19917;-72
2021/12/23 04:51:49;;;;;;;;;;;1.90;93.60;;;;;;5034233;28;19949;-73
2021/12/23 04:54:15;;;;;;;;;;;1.90;93.50;;;;;;5034397;28;19923;-73
2021/12/23 04:56:40;;;;;;;;;;;1.90;93.60;;;;;;5035557;28;20259;-73
2021/12/23 04:59:06;;;;;;;;;;;1.90;93.50;;;;;;5033820;28;19914;-73
2021/12/23 05:01:32;;;;;;;;;;;1.90;93.40;;;;;;5035020;28;20350;-73
2021/12/23 05:03:58;;;;;;;;;;;2.00;93.50;;;;;;5033789;28;19913;-72
2021/12/23 05:06:23;;;;;;;;;;;2.00;93.60;;;;;;5033947;28;20312;-73
2021/12/23 05:08:49;;;;;;;;;;;2.10;93.90;;;;;;5035613;28;19909;-74
2021/12/23 05:11:16;;;;;;;;;;;2.00;93.40;;;;;;5034860;28;20389;-74
2021/12/23 05:13:42;;;;;;;;;;;2.10;93.60;;;;;;5033789;28;19917;-73
2021/12/23 05:16:07;;;;;;;;;;;2.10;93.50;;;;;;5034817;28;19917;-73
2021/12/23 05:18:33;;;;;;;;;;;2.10;93.40;;;;;;5034726;28;19913;-74
2021/12/23 05:20:59;;;;;;;;;;;2.10;93.40;;;;;;5035193;28;20303;-74
2021/12/23 05:23:24;;;;;;;;;;;2.10;93.30;;;;;;5034558;28;19917;-74
2021/12/23 05:25:50;;;;;;;;;;;2.10;93.30;;;;;;5034601;28;19945;-73
2021/12/23 05:28:15;;;;;;;;;;;2.10;93.40;;;;;;5034434;28;20347;-73
2021/12/23 05:30:41;;;;;;;;;;;2.10;93.40;;;;;;5033084;28;19952;-74
2021/12/23 05:33:06;;;;;;;;;;;2.10;93.30;;;;;;5034856;28;20338;-75
2021/12/23 05:35:32;;;;;;;;;;;2.10;93.50;;;;;;5033230;28;19933;-73
2021/12/23 05:37:58;;;;;;;;;;;2.10;93.40;;;;;;5033245;28;19923;-73
2021/12/23 05:40:24;;;;;;;;;;;2.20;93.30;;;;;;5034277;28;19913;-74
2021/12/23 05:42:50;;;;;;;;;;;2.20;93.30;;;;;;5034383;28;20301;-74
2021/12/23 05:45:16;;;;;;;;;;;2.20;93.10;;;;;;5034375;28;20011;-73
2021/12/23 05:47:41;;;;;;;;;;;2.20;93.30;;;;;;5034775;28;19909;-73
2021/12/23 05:50:08;;;;;;;;;;;2.20;93.20;;;;;;5033101;28;19913;-74
2021/12/23 05:52:33;;;;;;;;;;;2.20;93.30;;;;;;5034240;28;19922;-74
2021/12/23 05:55:02;;;;;;;;;;;2.20;93.30;;;;;;5033110;28;19928;-74
2021/12/23 05:57:27;;;;;;;;;;;2.20;93.40;;;;;;5034302;28;19917;-74
2021/12/23 05:59:53;;;;;;;;;;;2.20;93.30;;;;;;5034788;28;19917;-73
2021/12/23 06:02:18;;;;;;;;;;;2.20;93.20;;;;;;5034053;28;19913;-74
2021/12/23 06:04:44;;;;;;;;;;;2.20;93.30;;;;;;5032828;28;20382;-73
2021/12/23 06:07:09;;;;;;;;;;;2.20;93.40;;;;;;5033955;28;19917;-74
2021/12/23 06:09:35;;;;;;;;;;;2.20;93.50;;;;;;5034007;28;19920;-73
2021/12/23 06:12:01;;;;;;;;;;;2.20;93.60;;;;;;5033345;28;19972;-75
2021/12/23 06:14:26;;;;;;;;;;;2.20;93.50;;;;;;5033634;28;20334;-75
2021/12/23 06:16:52;;;;;;;;;;;2.00;93.40;;;;;;5033693;28;19913;-74
2021/12/23 06:19:17;;;;;;;;;;;2.10;93.60;;;;;;5033632;28;19917;-73
2021/12/23 06:21:43;;;;;;;;;;;2.10;93.60;;;;;;5032640;28;19959;-73
2021/12/23 06:24:09;;;;;;;;;;;2.00;93.50;;;;;;5033032;28;20294;-73
2021/12/23 06:26:34;;;;;;;;;;;2.00;93.50;;;;;;5032761;28;20331;-75
2021/12/23 06:29:00;;;;;;;;;;;2.00;93.40;;;;;;5032026;28;20055;-73
2021/12/23 06:31:26;;;;;;;;;;;2.00;93.50;;;;;;5032217;28;19925;-73
2021/12/23 06:33:51;;;;;;;;;;;2.00;93.50;;;;;;5033084;28;19917;-72
2021/12/23 06:36:17;;;;;;;;;;;2.00;93.50;;;;;;5033228;28;19971;-73
2021/12/23 06:38:43;;;;;;;;;;;2.10;93.60;;;;;;5032571;28;19909;-74
2021/12/23 06:41:09;;;;;;;;;;;2.10;93.50;;;;;;5032033;28;19928;-72
2021/12/23 06:43:35;;;;;;;;;;;2.10;93.40;;;;;;5033177;28;19917;-73
2021/12/23 06:46:02;;;;;;;;;;;2.10;93.40;;;;;;5032937;28;19923;-73
2021/12/23 06:48:27;;;;;;;;;;;2.00;93.20;;;;;;5032941;28;19920;-73
2021/12/23 06:50:56;;;;;;;;;;;2.00;93.30;;;;;;5033442;28;19913;-73
2021/12/23 06:53:22;;;;;;;;;;;2.00;93.30;;;;;;5031854;28;19913;-73
2021/12/23 06:55:50;;;;;;;;;;;2.10;93.40;;;;;;5032930;28;19913;-74
2021/12/23 06:58:16;;;;;;;;;;;2.10;93.40;;;;;;5031779;28;20437;-73
2021/12/23 07:00:41;;;;;;;;;;;2.10;93.40;;;;;;5032655;28;19913;-74
2021/12/23 07:03:07;;;;;;;;;;;2.10;93.40;;;;;;5033053;28;19919;-73
2021/12/23 07:05:32;;;;;;;;;;;2.10;93.50;;;;;;5031486;28;19924;-72
2021/12/23 07:08:08;;;;;;;;;;;2.10;93.50;;;;;;5031648;28;19920;-73
2021/12/23 07:10:33;;;;;;;;;;;2.10;93.60;;;;;;5032789;28;19913;-73
2021/12/23 07:13:02;;;;;;;;;;;2.10;93.60;;;;;;5032422;28;20366;-73
2021/12/23 07:15:28;;;;;;;;;;;2.10;93.60;;;;;;5031330;28;19929;-73
2021/12/23 07:17:55;;;;;;;;;;;2.10;93.60;;;;;;5032782;28;19909;-73
2021/12/23 07:20:21;;;;;;;;;;;2.20;93.70;;;;;;5032550;28;19921;-74
2021/12/23 07:22:47;;;;;;;;;;;2.20;93.70;;;;;;5032499;28;20309;-73
2021/12/23 07:25:13;;;;;;;;;;;2.20;93.60;;;;;;5032528;28;20002;-73
2021/12/23 07:27:39;;;;;;;;;;;2.20;93.60;;;;;;5031409;28;19917;-74
2021/12/23 07:30:05;;;;;;;;;;;2.20;93.60;;;;;;5032722;28;19913;-73
2021/12/23 07:32:31;;;;;;;;;;;2.20;93.60;;;;;;5031922;28;19936;-74
2021/12/23 07:34:56;;;;;;;;;;;2.20;93.60;;;;;;5031122;28;19929;-74
2021/12/23 07:37:22;;;;;;;;;;;2.30;93.60;;;;;;5032238;28;19921;-73
2021/12/23 07:39:48;;;;;;;;;;;2.20;93.60;;;;;;5032220;28;19975;-74
2021/12/23 07:42:15;;;;;;;;;;;2.30;93.60;;;;;;5031303;28;19916;-74
2021/12/23 07:44:44;;;;;;;;;;;2.30;93.50;;;;;;5033124;28;20289;-73
2021/12/23 07:47:10;;;;;;;;;;;2.30;93.50;;;;;;5030870;28;19921;-72
2021/12/23 07:49:36;;;;;;;;;;;2.30;93.50;;;;;;5032043;28;20587;-73
2021/12/23 07:52:01;;;;;;;;;;;2.30;93.50;;;;;;5030823;28;19913;-73
2021/12/23 07:54:27;;;;;;;;;;;2.30;93.40;;;;;;5031893;28;19967;-73
2021/12/23 07:56:52;;;;;;;;;;;2.30;93.40;;;;;;5032447;28;19910;-73
2021/12/23 07:59:18;;;;;;;;;;;2.40;93.40;;;;;;5031893;28;19920;-74
2021/12/23 08:01:43;;;;;;;;;;;2.30;93.50;;;;;;5031627;28;20182;-74
2021/12/23 08:04:09;;;;;;;;;;;2.40;93.50;;;;;;5030246;28;19921;-74
2021/12/23 08:06:34;;;;;;;;;;;2.40;93.50;;;;;;5031347;28;19917;-73
2021/12/23 08:09:00;;;;;;;;;;;2.40;93.50;;;;;;5031847;28;19909;-73
2021/12/23 08:11:25;;;;;;;;;;;2.30;93.40;;;;;;5031347;28;19913;-74
2021/12/23 08:13:51;;;;;;;;;;;2.40;93.50;;;;;;5033060;28;19952;-74
2021/12/23 08:16:16;;;;;;;;;;;2.40;93.40;;;;;;5035295;28;19977;-74
2021/12/23 08:18:42;;;;;;;;;;;2.40;93.40;;;;;;5034208;28;19913;-74
2021/12/23 08:21:07;;;;;;;;;;;2.40;93.40;;;;;;5035750;28;19910;-75
2021/12/23 08:23:33;;;;;;;;;;;2.50;93.50;;;;;;5035287;28;20000;-73
2021/12/23 08:26:03;;;;;;;;;;;2.40;93.40;;;;;;5035330;28;20039;-74
2021/12/23 08:28:29;;;;;;;;;;;2.40;93.50;;;;;;5034026;28;19920;-74
2021/12/23 08:30:54;;;;;;;;;;;2.50;93.50;;;;;;5034021;28;19929;-73
2021/12/23 08:33:19;;;;;;;;;;;2.50;93.50;;;;;;5035285;28;19914;-74
2021/12/23 08:35:45;;;;;;;;;;;2.50;93.60;;;;;;5036055;28;20338;-74
2021/12/23 08:38:10;;;;;;;;;;;2.60;93.60;;;;;;5033951;28;20370;-74
2021/12/23 08:40:36;;;;;;;;;;;2.60;93.40;;;;;;5035289;28;20290;-73
2021/12/23 08:43:02;;;;;;;;;;;2.60;93.40;;;;;;5035106;28;19914;-75
2021/12/23 08:45:28;;;;;;;;;;;2.60;93.40;;;;;;5035052;28;19909;-73
2021/12/23 08:47:54;;;;;;;;;;;2.60;93.40;;;;;;5035503;28;19948;-73
2021/12/23 08:50:20;;;;;;;;;;;2.70;93.50;;;;;;5035245;28;20409;-73
2021/12/23 08:52:46;;;;;;;;;;;2.70;93.30;;;;;;5033804;28;19917;-73
2021/12/23 08:55:12;;;;;;;;;;;2.70;93.40;;;;;;5034757;28;19927;-74
2021/12/23 08:57:37;;;;;;;;;;;2.70;93.40;;;;;;5034560;28;20351;-74
2021/12/23 09:00:05;;;;;;;;;;;2.70;93.40;;;;;;5035243;28;19948;-75
2021/12/23 09:02:31;;;;;;;;;;;2.70;93.40;;;;;;5034679;28;20004;-74
2021/12/23 09:04:56;;;;;;;;;;;2.70;93.40;;;;;;5034543;28;20395;-73
2021/12/23 09:07:22;;;;;;;;;;;2.70;93.50;;;;;;5034687;28;20283;-74
2021/12/23 09:09:50;;;;;;;;;;;2.70;93.60;;;;;;5034388;28;19913;-73
2021/12/23 09:12:17;;;;;;;;;;;2.70;93.30;;;;;;5033500;28;20383;-73
2021/12/23 09:14:42;;;;;;;;;;;2.80;93.40;;;;;;5035025;28;19913;-74
2021/12/23 09:17:07;;;;;;;;;;;2.70;93.40;;;;;;5032945;28;19913;-75
2021/12/23 09:19:33;;;;;;;;;;;2.80;93.50;;;;;;5034198;28;20024;-74
2021/12/23 09:21:59;;;;;;;;;;;2.80;93.40;;;;;;5033000;28;19913;-75
2021/12/23 09:24:26;;;;;;;;;;;2.80;93.30;;;;;;5034387;28;19913;-73
2021/12/23 09:26:59;;;;;;;;;;;2.80;93.20;;;;;;5034961;28;19916;-75
2021/12/23 09:34:54;;;;;;;;;;;2.90;93.20;;;;;;5034142;28;19951;-75
2021/12/23 09:37:20;;;;;;;;;;;2.90;93.20;;;;;;5034380;28;19975;-75
2021/12/23 09:39:52;;;;;;;;;;;3.00;93.30;;;;;;5034266;28;19913;-74
2021/12/23 09:42:19;;;;;;;;;;;3.00;93.20;;;;;;5034126;28;19956;-75
2021/12/23 09:44:45;;;;;;;;;;;3.00;93.30;;;;;;5034332;28;19936;-74
2021/12/23 09:47:11;;;;;;;;;;;3.00;93.20;;;;;;5033929;28;19982;-75
2021/12/23 09:49:37;;;;;;;;;;;3.00;93.10;;;;;;5032767;28;19923;-75
2021/12/23 09:52:03;;;;;;;;;;;3.00;93.00;;;;;;5033908;28;19913;-75
2021/12/23 09:54:29;;;;;;;;;;;3.00;92.90;;;;;;5033452;28;19940;-74
2021/12/23 09:56:55;;;;;;;;;;;3.10;92.80;;;;;;5034082;28;19913;-75
2021/12/23 09:59:26;;;;;;;;;;;3.10;92.70;;;;;;5033670;28;20330;-74
2021/12/23 10:01:52;;;;;;;;;;;3.10;92.50;;;;;;5032478;28;19914;-74
2021/12/23 10:04:17;;;;;;;;;;;3.10;92.60;;;;;;5033404;28;20306;-74
2021/12/23 10:06:43;;;;;;;;;;;3.10;92.50;;;;;;5033364;28;20347;-74
2021/12/23 10:09:08;;;;;;;;;;;3.10;92.50;;;;;;5033979;28;19913;-74
2021/12/23 10:30:56;;;;;;;;;;;3.20;92.60;;;;;;5033076;28;19952;-74
2021/12/23 10:38:42;;;;;;;;;;;3.30;92.50;;;;;;5032971;28;20016;-75
2021/12/23 10:41:12;;;;;;;;;;;3.30;92.50;;;;;;5032824;28;20243;-74
2021/12/23 10:43:42;;;;;;;;;;;3.30;92.50;;;;;;5032224;28;19917;-76
2021/12/23 10:46:12;;;;;;;;;;;3.30;92.40;;;;;;5033107;28;19913;-74
2021/12/23 10:48:45;;;;;;;;;;;3.30;92.50;;;;;;5032709;28;19913;-75
2021/12/23 10:51:16;;;;;;;;;;;3.30;92.40;;;;;;5032891;28;19909;-74
2021/12/23 10:59:19;;;;;;;;;;;3.40;92.20;;;;;;5032598;28;20024;-73
2021/12/23 11:02:05;;;;;;;;;;;3.40;92.10;;;;;;5032229;28;20023;-74
2021/12/23 11:04:36;;;;;;;;;;;3.50;92.10;;;;;;5032273;28;20402;-75
2021/12/23 11:07:25;;;;;;;;;;;3.40;91.90;;;;;;5032691;28;19921;-77
2021/12/23 11:10:18;;;;;;;;;;;3.40;91.70;;;;;;5031488;28;20366;-74
2021/12/23 11:30:25;;;;;;;;;;;3.70;91.40;;;;;;5032133;28;19944;-73
2021/12/23 11:37:55;;;;;;;;;;;3.70;91.30;;;;;;5031837;28;20021;-75
2021/12/23 11:43:13;;;;;;;;;;;3.70;91.30;;;;;;5032263;28;19913;-76
2021/12/23 11:45:38;;;;;;;;;;;3.70;91.10;;;;;;5031507;28;20018;-75
2021/12/23 11:48:06;;;;;;;;;;;3.70;91.20;;;;;;5032079;28;20318;-75
2021/12/23 11:50:41;;;;;;;;;;;3.70;91.10;;;;;;5031807;28;19913;-75
2021/12/23 11:53:07;;;;;;;;;;;3.70;91.20;;;;;;5030492;28;19924;-74
2021/12/23 11:55:33;;;;;;;;;;;3.70;91.00;;;;;;5030877;28;19917;-75
2021/12/23 11:57:59;;;;;;;;;;;3.70;91.10;;;;;;5032059;28;19913;-75
2021/12/23 12:00:42;;;;;;;;;;;3.80;91.10;;;;;;5031526;28;19967;-74
2021/12/23 12:03:09;;;;;;;;;;;3.90;91.10;;;;;;5031134;28;19909;-75
2021/12/23 12:05:38;;;;;;;;;;;3.90;91.20;;;;;;5031662;28;20307;-75
2021/12/23 12:08:06;;;;;;;;;;;3.90;91.10;;;;;;5030535;28;19925;-74
2021/12/23 12:10:33;;;;;;;;;;;3.90;91.10;;;;;;5032121;28;19913;-74
2021/12/23 12:13:07;;;;;;;;;;;3.80;91.20;;;;;;5031329;28;19948;-75
2021/12/23 12:15:47;;;;;;;;;;;3.90;91.20;;;;;;5031525;28;19918;-75
2021/12/23 12:18:22;;;;;;;;;;;3.90;91.10;;;;;;5031595;28;19909;-75
2021/12/23 12:20:59;;;;;;;;;;;3.90;91.20;;;;;;5031021;28;19999;-75
2021/12/23 12:23:34;;;;;;;;;;;3.90;91.30;;;;;;5031671;28;19946;-73
2021/12/23 12:26:08;;;;;;;;;;;3.80;91.30;;;;;;5031584;28;20339;-76
2021/12/23 12:28:34;;;;;;;;;;;3.90;91.50;;;;;;5032058;28;19917;-75
2021/12/23 12:31:05;;;;;;;;;;;3.90;91.30;;;;;;5031311;28;20337;-75
2021/12/23 12:33:37;;;;;;;;;;;3.90;91.40;;;;;;5031089;28;20942;-76
2021/12/23 12:36:02;;;;;;;;;;;4.00;91.80;;;;;;5030925;28;19910;-76
2021/12/23 12:38:38;;;;;;;;;;;4.00;91.40;;;;;;5031012;28;19939;-75
2021/12/23 12:41:06;;;;;;;;;;;4.00;91.50;;;;;;5032125;28;19995;-75
2021/12/23 12:44:00;;;;;;;;;;;4.00;91.40;;;;;;5030715;28;19920;-74
2021/12/23 12:46:39;;;;;;;;;;;4.00;91.50;;;;;;5031674;28;19913;-74
2021/12/23 12:49:13;;;;;;;;;;;4.00;91.50;;;;;;5030504;28;19971;-75
2021/12/23 12:51:39;;;;;;;;;;;4.00;91.60;;;;;;5031702;28;19913;-75
2021/12/23 12:54:07;;;;;;;;;;;4.00;91.70;;;;;;5031744;28;19924;-75
2021/12/23 12:56:35;;;;;;;;;;;4.00;91.70;;;;;;5031584;28;20012;-75
2021/12/23 12:59:05;;;;;;;;;;;4.00;91.90;;;;;;5031711;28;19913;-74
2021/12/23 13:01:33;;;;;;;;;;;4.00;91.60;;;;;;5035197;28;19913;-74
2021/12/23 13:04:00;;;;;;;;;;;4.00;91.50;;;;;;5034793;28;19917;-74
2021/12/23 13:06:38;;;;;;;;;;;4.00;91.80;;;;;;5034878;28;19924;-75
2021/12/23 13:09:05;;;;;;;;;;;4.00;92.00;;;;;;5035522;28;19961;-76
2021/12/23 13:11:30;;;;;;;;;;;4.10;92.30;;;;;;5034727;28;19979;-74
2021/12/23 13:14:04;;;;;;;;;;;4.10;92.40;;;;;;5033414;28;19982;-73
2021/12/23 13:16:30;;;;;;;;;;;4.10;92.70;;;;;;5034501;28;20316;-73
2021/12/23 13:19:15;;;;;;;;;;;4.10;92.90;;;;;;5033530;28;19996;-75
2021/12/23 13:21:44;;;;;;;;;;;4.10;93.20;;;;;;5033526;28;19924;-76
2021/12/23 13:24:11;;;;;;;;;;;3.90;93.00;;;;;;5035347;28;20015;-74
2021/12/23 13:26:37;;;;;;;;;;;3.90;93.30;;;;;;5034667;28;19917;-74
2021/12/23 13:29:04;;;;;;;;;;;4.00;93.50;;;;;;5034469;28;20380;-74
2021/12/23 13:31:34;;;;;;;;;;;4.00;93.60;;;;;;5034209;28;19925;-76
2021/12/23 13:34:01;;;;;;;;;;;4.00;93.60;;;;;;5034338;28;20500;-74
2021/12/23 13:36:47;;;;;;;;;;;3.90;93.70;;;;;;5034165;28;20330;-75
2021/12/23 13:39:14;;;;;;;;;;;3.90;94.30;;;;;;5034154;28;19910;-74
2021/12/23 13:41:41;;;;;;;;;;;4.00;94.40;;;;;;5034785;28;20183;-74
2021/12/23 13:44:26;;;;;;;;;;;4.00;94.40;;;;;;5034235;28;19928;-75
2021/12/23 13:46:59;;;;;;;;;;;4.00;94.50;;;;;;5033227;28;19921;-74
2021/12/23 13:49:31;;;;;;;;;;;4.00;94.70;;;;;;5034245;28;19921;-75
2021/12/23 13:51:57;;;;;;;;;;;4.00;94.80;;;;;;5033206;28;19917;-75
2021/12/23 13:54:22;;;;;;;;;;;4.00;95.00;;;;;;5033869;28;19951;-74
2021/12/23 13:56:49;;;;;;;;;;;4.00;95.20;;;;;;5034820;28;19916;-74
2021/12/23 13:59:14;;;;;;;;;;;4.00;95.20;;;;;;5033903;28;19924;-74
2021/12/23 14:01:53;;;;;;;;;;;4.00;95.70;;;;;;5034538;28;20003;-74
2021/12/23 14:04:29;;;;;;;;;;;4.00;95.40;;;;;;5034043;28;19921;-75
2021/12/23 14:06:55;;;;;;;;;;;4.00;95.40;;;;;;5034072;28;20402;-74
2021/12/23 14:09:33;;;;;;;;;;;4.10;95.60;;;;;;5032650;28;20414;-75
2021/12/23 14:12:00;;;;;;;;;;;4.00;95.60;;;;;;5033119;28;20243;-74
2021/12/23 14:14:26;;;;;;;;;;;4.00;95.40;;;;;;5033385;28;20434;-74
2021/12/23 14:16:51;;;;;;;;;;;4.10;95.40;;;;;;5032483;28;19924;-74
2021/12/23 14:19:40;;;;;;;;;;;4.10;95.50;;;;;;5035125;28;19928;-74
2021/12/23 14:24:54;;;;;;;;;;;4.10;96.00;;;;;;5034258;28;19920;-74
2021/12/23 14:27:20;;;;;;;;;;;4.10;95.70;;;;;;5032923;28;19913;-73
2021/12/23 14:29:48;;;;;;;;;;;4.10;95.70;;;;;;5032507;28;19913;-74
2021/12/23 14:32:14;;;;;;;;;;;4.10;95.70;;;;;;5032930;28;20457;-74
2021/12/23 14:34:40;;;;;;;;;;;4.10;95.90;;;;;;5033850;28;20046;-74
2021/12/23 14:37:09;;;;;;;;;;;4.10;95.70;;;;;;5033347;28;20335;-74
2021/12/23 14:39:38;;;;;;;;;;;4.00;95.80;;;;;;5033058;28;19924;-75
2021/12/23 14:42:17;;;;;;;;;;;4.10;96.00;;;;;;5033666;28;19916;-74
2021/12/23 14:44:43;;;;;;;;;;;4.00;96.00;;;;;;5032145;28;19913;-75
2021/12/23 14:47:15;;;;;;;;;;;4.00;95.90;;;;;;5032421;28;19914;-75
2021/12/23 14:52:20;;;;;;;;;;;4.00;95.70;;;;;;5033395;28;19917;-74
2021/12/23 14:54:48;;;;;;;;;;;4.00;95.80;;;;;;5032948;28;19921;-74
2021/12/23 14:57:15;;;;;;;;;;;4.10;95.70;;;;;;5031954;28;19967;-75
2021/12/23 14:59:45;;;;;;;;;;;4.10;95.90;;;;;;5033325;28;19941;-73
2021/12/23 15:02:10;;;;;;;;;;;4.20;95.70;;;;;;5032535;28;19917;-73
2021/12/23 15:04:36;;;;;;;;;;;4.20;95.50;;;;;;5032791;28;19919;-73
2021/12/23 15:07:06;;;;;;;;;;;4.10;95.80;;;;;;5032718;28;19917;-73
2021/12/23 15:09:33;;;;;;;;;;;4.10;95.50;;;;;;5031861;28;20270;-73
2021/12/23 15:12:12;;;;;;;;;;;4.10;95.30;;;;;;5031874;28;19940;-73
2021/12/23 15:14:39;;;;;;;;;;;4.10;95.30;;;;;;5032808;28;20250;-74
2021/12/23 15:17:13;;;;;;;;;;;4.00;95.40;;;;;;5032359;28;19917;-73
2021/12/23 15:19:40;;;;;;;;;;;4.10;95.30;;;;;;5031563;28;19935;-74
2021/12/23 15:22:13;;;;;;;;;;;4.10;95.30;;;;;;5032999;28;20000;-74
2021/12/23 15:24:42;;;;;;;;;;;4.10;95.40;;;;;;5031709;28;20008;-74
2021/12/23 15:27:09;;;;;;;;;;;4.20;95.50;;;;;;5031812;28;19968;-74
2021/12/23 15:29:44;;;;;;;;;;;4.20;95.40;;;;;;5032607;28;19917;-74
2021/12/23 15:32:16;;;;;;;;;;;4.20;95.40;;;;;;5031984;28;19928;-74
2021/12/23 15:34:49;;;;;;;;;;;4.20;95.30;;;;;;5032116;28;19960;-74
2021/12/23 15:37:16;;;;;;;;;;;4.20;95.30;;;;;;5032208;28;19928;-73
2021/12/23 15:39:41;;;;;;;;;;;4.20;95.40;;;;;;5031933;28;19913;-74
2021/12/23 15:42:09;;;;;;;;;;;4.20;95.30;;;;;;5031724;28;19971;-74
2021/12/23 15:44:35;;;;;;;;;;;4.20;95.40;;;;;;5031916;28;19921;-75
2021/12/23 15:47:02;;;;;;;;;;;4.20;95.50;;;;;;5032021;28;20526;-74
2021/12/23 15:49:28;;;;;;;;;;;4.10;95.40;;;;;;5032082;28;19917;-74
2021/12/23 15:51:54;;;;;;;;;;;4.20;95.60;;;;;;5031276;28;19913;-74